River Elbe — 3FWL6 — position and weather

sailwx.info

Track history (hours):
 
Tides and Currents Weather Stations Pressure Air Temp Water Temp Dewpoint Dewpoint Depression Visibility Wind Speed Wind Dir Waves Ship Positions

River Elbe

Last reported at 2017-Nov-14 13:00 UTC. Time now 2017-Nov-21 10:05 UTC.
Position N 40°59' E 029°00'.

Length 89 m; draft 5.4 m.

Type: Cargo ship. MMSI: 351895000.

Date/timePositionNaut miles runAvg speedWind from/ knotsBaromVisibWave heightAir tempDewpointWater temp
2017-Nov-14 13:00N 40°59' E 029°00'5 8.4
2017-Nov-14 12:24N 40°54' E 029°02'3 8.4
2017-Nov-14 12:00N 40°51' E 029°04'4 7.7
2017-Nov-14 11:30N 40°50' E 029°09'3 6.2
2017-Nov-14 11:00N 40°52' E 029°13'0 0.1
2017-Nov-14 10:29N 40°52' E 029°13'0 0.0
2017-Nov-14 09:59N 40°52' E 029°13'0 0.0
2017-Nov-14 09:29N 40°52' E 029°13'0 0.0
2017-Nov-14 08:59N 40°52' E 029°13'0 0.0
2017-Nov-14 08:29N 40°52' E 029°13'0 0.0
2017-Nov-14 07:53N 40°52' E 029°13'0 0.0
2017-Nov-14 07:29N 40°52' E 029°13'0 0.0
2017-Nov-14 06:59N 40°52' E 029°13'0 0.0
2017-Nov-14 06:29N 40°52' E 029°13'0 0.0
2017-Nov-14 05:59N 40°52' E 029°13'0 0.0
2017-Nov-14 05:23N 40°52' E 029°13'0 0.0
2017-Nov-14 04:59N 40°52' E 029°13'0 0.0
2017-Nov-14 04:29N 40°52' E 029°13'0 0.0
2017-Nov-14 03:59N 40°52' E 029°13'0 0.0
2017-Nov-14 03:29N 40°52' E 029°13'0 0.0
2017-Nov-14 02:59N 40°52' E 029°13'0 0.0
2017-Nov-14 02:29N 40°52' E 029°13'0 0.0
2017-Nov-14 01:59N 40°52' E 029°13'0 0.0
2017-Nov-14 01:11N 40°52' E 029°13'0 0.1
2017-Nov-14 00:59N 40°52' E 029°13'0 0.1
2017-Nov-14 00:29N 40°52' E 029°13'0 0.0
2017-Nov-13 23:59N 40°52' E 029°13'0 0.0
2017-Nov-13 23:23N 40°52' E 029°13'0 0.0
2017-Nov-13 22:59N 40°52' E 029°13'0 0.0
2017-Nov-13 22:23N 40°52' E 029°13'0 0.0
2017-Nov-13 21:59N 40°52' E 029°13'  
Track history (hours):
 
Tides and Currents Weather Stations Pressure Air Temp Water Temp Dewpoint Dewpoint Depression Visibility Wind Speed Wind Dir Waves Ship Positions

River Elbe

Last reported at 2017-Nov-14 13:00 UTC. Time now 2017-Nov-21 10:05 UTC.
Position N 40°59' E 029°00'.

Length 89 m; draft 5.4 m.

Type: Cargo ship. MMSI: 351895000.

Date/timePositionNaut miles runAvg speedWind from/ knotsBaromVisibWave heightAir tempDewpointWater temp
2017-Nov-14 13:00N 40°59' E 029°00'5 8.4
2017-Nov-14 12:24N 40°54' E 029°02'3 8.4
2017-Nov-14 12:00N 40°51' E 029°04'4 7.7
2017-Nov-14 11:30N 40°50' E 029°09'3 6.2
2017-Nov-14 11:00N 40°52' E 029°13'0 0.1
2017-Nov-14 10:29N 40°52' E 029°13'0 0.0
2017-Nov-14 09:59N 40°52' E 029°13'0 0.0
2017-Nov-14 09:29N 40°52' E 029°13'0 0.0
2017-Nov-14 08:59N 40°52' E 029°13'0 0.0
2017-Nov-14 08:29N 40°52' E 029°13'0 0.0
2017-Nov-14 07:53N 40°52' E 029°13'0 0.0
2017-Nov-14 07:29N 40°52' E 029°13'0 0.0
2017-Nov-14 06:59N 40°52' E 029°13'0 0.0
2017-Nov-14 06:29N 40°52' E 029°13'0 0.0
2017-Nov-14 05:59N 40°52' E 029°13'0 0.0
2017-Nov-14 05:23N 40°52' E 029°13'0 0.0
2017-Nov-14 04:59N 40°52' E 029°13'0 0.0
2017-Nov-14 04:29N 40°52' E 029°13'0 0.0
2017-Nov-14 03:59N 40°52' E 029°13'0 0.0
2017-Nov-14 03:29N 40°52' E 029°13'0 0.0
2017-Nov-14 02:59N 40°52' E 029°13'0 0.0
2017-Nov-14 02:29N 40°52' E 029°13'0 0.0
2017-Nov-14 01:59N 40°52' E 029°13'0 0.0
2017-Nov-14 01:11N 40°52' E 029°13'0 0.1
2017-Nov-14 00:59N 40°52' E 029°13'0 0.1
2017-Nov-14 00:29N 40°52' E 029°13'0 0.0
2017-Nov-13 23:59N 40°52' E 029°13'0 0.0
2017-Nov-13 23:23N 40°52' E 029°13'0 0.0
2017-Nov-13 22:59N 40°52' E 029°13'0 0.0
2017-Nov-13 22:23N 40°52' E 029°13'0 0.0
2017-Nov-13 21:59N 40°52' E 029°13'  

Dump ship's entire track history